East Canyon Creek Flow Near ECWRF

♦ The data used to create the chart above are available in the table below.
♦ You may freely copy and paste the table below for further analysis.
♦ If higher frequency or longer history data are required, click here for the USGS NWISWeb page. The East Canyon Creek gage below the East Canyon Water Reclamation Facility is 10133800.
♦ For ECWRF data, contact Michael Boyle, Operations Manager, at 435.214.5229.
♦ The Utah Division of Wildlife Resources has advised that a minimum flow of 3.5 cfs, preferably 6.0 cfs, is required to support East Canyon Creek's cold-water fishery.

Disclaimer
The Snyderville Basin Water Reclamation District provides no warranty, expressed or implied, as to the relevance, accuracy, reliability or completeness of the data. The link to the USGS NWISWeb page is for convenience only. The Snyderville Basin Water Reclamation District does not have any control over the collection or maintenance of the stream flow data at the East Canyon Creek gage below ECWRF and cannot guarantee the relevance, timeliness, or accuracy of that data.

Provisional Flow Data (cfs)
Date Downstream Flow ECWRF Flow Upstream Flow % ECWRF Flow
9/12/2019 26.6 3.76 22.84 14.14
9/13/2019 21.2 3.53 17.67 16.65
9/14/2019 18.9 3.59 15.31 18.99
9/15/2019 16.9 3.48 13.42 20.59
9/16/2019 16.8 3.37 13.43 20.06
9/17/2019 20.4 3.6 16.8 17.65
9/18/2019 17.1 3.33 13.77 19.47
9/19/2019 16.4 3.3 13.1 20.12
9/20/2019 21.9 3.56 18.34 16.26
9/21/2019 20.1 3.68 16.42 18.31
9/22/2019 18 3.53 14.47 19.61
9/23/2019 16.7 3.42 13.28 20.48
9/24/2019 16.1 3.26 12.84 20.25
9/25/2019 16.7 3.31 13.39 19.82
9/26/2019 16.8 3.36 13.44 20.0
9/27/2019 17.4 3.37 14.03 19.37
9/28/2019 25.5 3.72 21.78 14.59
9/29/2019 31.3 4 27.3 12.78
9/30/2019 20.6 3.56 17.04 17.28
10/1/2019 18.5 3.36 15.14 18.16
10/2/2019 18.6 3.32 15.28 17.85
10/3/2019 20.4 3.36 17.04 16.47
10/4/2019 18.5 3.29 15.21 17.78
10/5/2019 18.7 3.5 15.2 18.72
10/6/2019 19.6 3.43 16.17 17.50
10/7/2019 19.5 3.33 16.17 17.08
10/8/2019 19.5 3.25 16.25 16.67
10/9/2019 19.3 3.27 16.03 16.94
10/10/2019 20.1 3.31 16.79 16.47
10/11/2019 19.9 3.36 16.54 16.88
10/12/2019 19.4 3.43 15.97 17.68
10/13/2019 19.3 3.37 15.93 17.46
10/14/2019 18.4 3.29 15.11 17.88
10/15/2019 17.2 3.01 14.19 17.50
10/16/2019 18.9 3.06 15.84 16.19
10/17/2019 19.8 3.19 16.61 16.11
10/18/2019 21.3 3.34 17.96 15.68
10/19/2019 23.2 3.34 19.86 14.40
10/20/2019 27.8 3.66 24.14 13.17
10/21/2019 24.1 3.39 20.71 14.07
10/22/2019 26.1 3.38 22.72 12.95
10/23/2019 25.9 3.24 22.66 12.51
10/24/2019 22.1 3.18 18.92 14.39
10/25/2019 21.5 3.2 18.3 14.88
10/26/2019 22.8 3.27 19.53 14.34
10/27/2019 20.8 3.26 17.54 15.67
10/28/2019 17.9 3.27 14.63 18.27
10/29/2019 18.7 3.32 15.38 17.75
10/30/2019 13.9 3.27 10.63 23.53
10/31/2019 14.8 3.15 11.65 21.28
11/1/2019 17.4 3.25 14.15 18.68
11/2/2019 20.8 3.34 17.46 16.06
11/3/2019 21 3.4 17.6 16.19
11/4/2019 21.3 3.29 18.01 15.45
11/5/2019 20.4 3.13 17.27 15.34
11/6/2019 21.3 3.21 18.09 15.07
11/7/2019 21 3.15 17.85 15.00
11/8/2019 19 3.23 15.77 17.00
11/9/2019 19 3.32 15.68 17.47
11/10/2019 19.5 3.31 16.19 16.97
11/11/2019 19.5 3.25 16.25 16.67
11/12/2019 16.9 3.15 13.75 18.64